createdAt,value
2023-01-23T00:15:50.740Z,1.9
2023-01-23T00:35:04.863Z,2
2023-01-23T00:54:22.256Z,1.8
2023-01-23T01:13:35.783Z,1.7
2023-01-23T01:32:50.346Z,1.5
2023-01-23T01:52:04.199Z,1.6
2023-01-23T02:11:30.907Z,1.6
2023-01-23T02:30:36.615Z,1.2
2023-01-23T02:49:49.782Z,1.1
2023-01-23T03:09:02.271Z,0.6
2023-01-23T03:28:16.658Z,0.4
2023-01-23T03:47:34.584Z,0.8
2023-01-23T04:06:50.576Z,0.9
2023-01-23T04:26:05.763Z,1.1
2023-01-23T04:45:20.479Z,1.2
2023-01-23T05:04:34.273Z,1.3
2023-01-23T05:23:45.644Z,1.1
2023-01-23T05:43:01.760Z,1.3
2023-01-23T06:02:18.210Z,1.4
2023-01-23T06:21:33.724Z,1.6
2023-01-23T06:40:48.382Z,1.6
2023-01-23T07:00:03.678Z,1.6
2023-01-23T07:19:18.804Z,1.7
2023-01-23T07:38:33.817Z,1.8
2023-01-23T07:57:48.502Z,1.9
2023-01-23T08:17:04.058Z,2
2023-01-23T08:36:17.763Z,2
2023-01-23T08:55:32.290Z,2.2
2023-01-23T09:14:47.957Z,2.5
2023-01-23T09:34:03.913Z,1.9
2023-01-23T09:53:18.607Z,1.9
2023-01-23T10:12:33.121Z,2
2023-01-23T10:31:48.978Z,1.9
2023-01-23T10:51:03.586Z,1.7
2023-01-23T11:10:19.600Z,1.9
2023-01-23T11:29:33.650Z,2
2023-01-23T11:48:48.478Z,1.8
2023-01-23T12:08:03.125Z,1.7
2023-01-23T12:27:18.584Z,2.2
2023-01-23T12:46:31.890Z,2.2
2023-01-23T13:05:45.013Z,1.8
2023-01-23T13:24:56.711Z,2.1
2023-01-23T13:44:11.305Z,1.1
2023-01-23T14:03:27.893Z,1.9
2023-01-23T14:22:43.916Z,2.3
2023-01-23T14:41:56.217Z,2.5
2023-01-23T15:01:09.654Z,2.3
2023-01-23T15:20:22.307Z,2.2
2023-01-23T15:39:36.012Z,1.8
2023-01-23T15:58:51.924Z,2.4
2023-01-23T16:18:05.966Z,2
2023-01-23T16:37:19.944Z,1.6
2023-01-23T16:56:34.568Z,1.6
2023-01-23T17:15:48.658Z,1.6
2023-01-23T17:35:04.128Z,1.7
2023-01-23T17:54:18.743Z,1.9
2023-01-23T18:13:30.678Z,2.3
2023-01-23T18:32:44.855Z,2.2
2023-01-23T18:51:59.329Z,2
2023-01-23T19:11:15.184Z,1.9
2023-01-23T19:30:28.114Z,2.2
2023-01-23T19:49:42.561Z,2.2
2023-01-23T20:08:57.375Z,2.1
2023-01-23T20:28:11.914Z,2.3
2023-01-23T20:47:27.152Z,2.7
2023-01-23T21:06:44.785Z,2.5
2023-01-23T21:25:57.122Z,2.7
2023-01-23T21:45:08.648Z,2.5
2023-01-23T22:04:23.249Z,2.4
2023-01-23T22:23:38.278Z,2.2
2023-01-23T22:42:53.878Z,2.4
2023-01-23T23:02:08.240Z,2.4
2023-01-23T23:21:22.438Z,2.2
2023-01-23T23:40:39.118Z,2.2
2023-01-23T23:59:52.941Z,1.9
